SIN weather

Singapore Changi Airport
Singapore, South East, Singapore

Public forecast

Using degrees Celsius for public forecast. Weather courtesy of forecast.io.

METAR (pilot weather report)

Retrieved 2018/08/16 05:00 UTC (2 minutes ago):

WSSS 160500Z 21005KT 170V270 9999 FEW020TCU BKN300 32/23 Q1009 NOSIG

TAF (pilot weather forecast)

Forecast is more than 12 hours old.

Retrieved 2018/08/15 00:10 UTC (1 day ago):

TAF WSSS 152300Z 1600/1706 16010KT 9999 FEW015 SCT020 TEMPO 1602/1606 3000 TSRA FEW012CB BKN015 TEMPO 1702/1706 3000 TSRA FEW012CB BKN015